sensor_id;sensor_type;location;lat;lon;timestamp;pressure;altitude;pressure_sealevel;temperature;humidity
59787;BME280;45672;51.612;5.536;2024-03-08T00:00:11;101600.31;;;3.09;100.00
59787;BME280;45672;51.612;5.536;2024-03-08T00:02:40;101599.66;;;3.06;100.00
59787;BME280;45672;51.612;5.536;2024-03-08T00:05:06;101603.22;;;3.05;100.00
59787;BME280;45672;51.612;5.536;2024-03-08T00:07:37;101597.22;;;3.03;100.00
59787;BME280;45672;51.612;5.536;2024-03-08T00:10:03;101599.06;;;3.01;100.00
59787;BME280;45672;51.612;5.536;2024-03-08T00:12:29;101595.84;;;2.96;100.00
59787;BME280;45672;51.612;5.536;2024-03-08T00:14:54;101589.66;;;2.97;100.00
59787;BME280;45672;51.612;5.536;2024-03-08T00:17:21;101584.94;;;2.87;100.00
59787;BME280;45672;51.612;5.536;2024-03-08T00:19:48;101584.94;;;2.87;100.00
59787;BME280;45672;51.612;5.536;2024-03-08T00:22:15;101592.03;;;2.85;100.00
59787;BME280;45672;51.612;5.536;2024-03-08T00:24:40;101586.78;;;2.85;100.00
59787;BME280;45672;51.612;5.536;2024-03-08T00:27:05;101590.34;;;2.84;100.00
59787;BME280;45672;51.612;5.536;2024-03-08T00:29:31;101581.88;;;2.79;100.00
59787;BME280;45672;51.612;5.536;2024-03-08T00:31:56;101580.78;;;2.83;100.00
59787;BME280;45672;51.612;5.536;2024-03-08T00:34:21;101567.97;;;2.77;100.00
59787;BME280;45672;51.612;5.536;2024-03-08T00:36:46;101559.59;;;2.70;100.00
59787;BME280;45672;51.612;5.536;2024-03-08T00:39:12;101563.56;;;2.78;100.00
59787;BME280;45672;51.612;5.536;2024-03-08T00:41:38;101567.97;;;2.77;100.00
59787;BME280;45672;51.612;5.536;2024-03-08T00:44:03;101572.47;;;2.75;100.00
59787;BME280;45672;51.612;5.536;2024-03-08T00:46:30;101560.44;;;2.71;100.00
59787;BME280;45672;51.612;5.536;2024-03-08T00:48:56;101564.16;;;2.67;100.00
59787;BME280;45672;51.612;5.536;2024-03-08T00:51:22;101552.03;;;2.64;100.00
59787;BME280;45672;51.612;5.536;2024-03-08T00:53:47;101562.47;;;2.66;100.00
59787;BME280;45672;51.612;5.536;2024-03-08T00:56:12;101545.19;;;2.62;100.00
59787;BME280;45672;51.612;5.536;2024-03-08T00:58:37;101549.41;;;2.64;100.00
59787;BME280;45672;51.612;5.536;2024-03-08T01:01:03;101549.50;;;2.63;100.00
59787;BME280;45672;51.612;5.536;2024-03-08T01:03:30;101542.06;;;2.55;100.00
59787;BME280;45672;51.612;5.536;2024-03-08T01:05:57;101545.34;;;2.58;100.00
59787;BME280;45672;51.612;5.536;2024-03-08T01:08:22;101533.59;;;2.50;100.00
59787;BME280;45672;51.612;5.536;2024-03-08T01:10:48;101534.28;;;2.53;100.00
59787;BME280;45672;51.612;5.536;2024-03-08T01:13:15;101531.72;;;2.52;100.00
59787;BME280;45672;51.612;5.536;2024-03-08T01:15:41;101532.75;;;2.49;100.00
59787;BME280;45672;51.612;5.536;2024-03-08T01:18:06;101526.56;;;2.50;100.00
59787;BME280;45672;51.612;5.536;2024-03-08T01:20:31;101520.81;;;2.44;100.00
59787;BME280;45672;51.612;5.536;2024-03-08T01:22:57;101527.75;;;2.45;100.00
59787;BME280;45672;51.612;5.536;2024-03-08T01:25:22;101522.41;;;2.46;100.00
59787;BME280;45672;51.612;5.536;2024-03-08T01:27:48;101521.91;;;2.39;100.00
59787;BME280;45672;51.612;5.536;2024-03-08T01:30:13;101512.41;;;2.37;100.00
59787;BME280;45672;51.612;5.536;2024-03-08T01:32:42;101519.38;;;2.38;100.00
59787;BME280;45672;51.612;5.536;2024-03-08T01:35:09;101527.31;;;2.36;100.00
59787;BME280;45672;51.612;5.536;2024-03-08T01:37:34;101518.53;;;2.37;100.00
59787;BME280;45672;51.612;5.536;2024-03-08T01:40:00;101516.03;;;2.34;100.00
59787;BME280;45672;51.612;5.536;2024-03-08T01:42:25;101510.22;;;2.29;100.00
59787;BME280;45672;51.612;5.536;2024-03-08T01:44:51;101513.69;;;2.30;100.00
59787;BME280;45672;51.612;5.536;2024-03-08T01:47:17;101511.22;;;2.27;100.00
59787;BME280;45672;51.612;5.536;2024-03-08T01:49:43;101509.97;;;2.34;100.00
59787;BME280;45672;51.612;5.536;2024-03-08T01:52:09;101510.44;;;2.24;100.00
59787;BME280;45672;51.612;5.536;2024-03-08T01:54:35;101498.09;;;2.27;100.00
59787;BME280;45672;51.612;5.536;2024-03-08T01:57:01;101500.91;;;2.23;100.00
59787;BME280;45672;51.612;5.536;2024-03-08T01:59:26;101499.03;;;2.26;100.00
59787;BME280;45672;51.612;5.536;2024-03-08T02:01:55;101487.88;;;2.22;100.00
59787;BME280;45672;51.612;5.536;2024-03-08T02:04:21;101478.28;;;2.21;100.00
59787;BME280;45672;51.612;5.536;2024-03-08T02:06:46;101488.88;;;2.19;100.00
59787;BME280;45672;51.612;5.536;2024-03-08T02:09:13;101484.47;;;2.20;100.00
59787;BME280;45672;51.612;5.536;2024-03-08T02:11:40;101476.94;;;2.14;100.00
59787;BME280;45672;51.612;5.536;2024-03-08T02:14:06;101475.91;;;2.16;100.00
59787;BME280;45672;51.612;5.536;2024-03-08T02:16:31;101472.78;;;2.10;100.00
59787;BME280;45672;51.612;5.536;2024-03-08T02:18:57;101466.09;;;2.04;100.00
59787;BME280;45672;51.612;5.536;2024-03-08T02:21:23;101471.25;;;2.05;100.00
59787;BME280;45672;51.612;5.536;2024-03-08T02:23:49;101469.41;;;2.08;100.00
59787;BME280;45672;51.612;5.536;2024-03-08T02:26:17;101462.78;;;2.00;100.00
59787;BME280;45672;51.612;5.536;2024-03-08T02:28:43;101464.66;;;1.98;100.00
59787;BME280;45672;51.612;5.536;2024-03-08T02:31:09;101455.94;;;1.98;100.00
59787;BME280;45672;51.612;5.536;2024-03-08T02:33:34;101446.63;;;1.92;100.00
59787;BME280;45672;51.612;5.536;2024-03-08T02:36:00;101450.84;;;1.95;100.00
59787;BME280;45672;51.612;5.536;2024-03-08T02:38:25;101446.53;;;1.94;100.00
59787;BME280;45672;51.612;5.536;2024-03-08T02:40:52;101449.25;;;1.92;100.00
59787;BME280;45672;51.612;5.536;2024-03-08T02:43:19;101433.16;;;1.82;100.00
59787;BME280;45672;51.612;5.536;2024-03-08T02:45:45;101447.81;;;1.86;100.00
59787;BME280;45672;51.612;5.536;2024-03-08T02:48:11;101439.25;;;1.83;100.00
59787;BME280;45672;51.612;5.536;2024-03-08T02:50:37;101441.94;;;1.81;100.00
59787;BME280;45672;51.612;5.536;2024-03-08T02:53:03;101435.94;;;1.79;100.00
59787;BME280;45672;51.612;5.536;2024-03-08T02:55:29;101437.88;;;1.76;100.00
59787;BME280;45672;51.612;5.536;2024-03-08T02:57:55;101430.94;;;1.75;100.00
59787;BME280;45672;51.612;5.536;2024-03-08T03:00:21;101432.81;;;1.72;100.00
59787;BME280;45672;51.612;5.536;2024-03-08T03:02:49;101415.78;;;1.64;100.00
59787;BME280;45672;51.612;5.536;2024-03-08T03:05:17;101423.22;;;1.71;100.00
59787;BME280;45672;51.612;5.536;2024-03-08T03:07:42;101414.69;;;1.68;100.00
59787;BME280;45672;51.612;5.536;2024-03-08T03:10:08;101414.78;;;1.66;100.00
59787;BME280;45672;51.612;5.536;2024-03-08T03:12:33;101403.84;;;1.58;100.00
59787;BME280;45672;51.612;5.536;2024-03-08T03:14:59;101409.94;;;1.59;100.00
59787;BME280;45672;51.612;5.536;2024-03-08T03:17:24;101409.09;;;1.58;100.00
59787;BME280;45672;51.612;5.536;2024-03-08T03:19:51;101400.53;;;1.54;100.00
59787;BME280;45672;51.612;5.536;2024-03-08T03:22:19;101407.41;;;1.57;100.00
59787;BME280;45672;51.612;5.536;2024-03-08T03:24:45;101408.50;;;1.53;100.00
59787;BME280;45672;51.612;5.536;2024-03-08T03:27:14;101405.97;;;1.51;100.00
59787;BME280;45672;51.612;5.536;2024-03-08T03:29:41;101404.16;;;1.52;100.00
59787;BME280;45672;51.612;5.536;2024-03-08T03:32:11;101399.09;;;1.49;100.00
59787;BME280;45672;51.612;5.536;2024-03-08T03:34:37;101401.53;;;1.52;100.00
59787;BME280;45672;51.612;5.536;2024-03-08T03:37:03;101403.34;;;1.51;100.00
59787;BME280;45672;51.612;5.536;2024-03-08T03:39:29;101400.09;;;1.46;100.00
59787;BME280;45672;51.612;5.536;2024-03-08T03:41:59;101392.94;;;1.50;100.00
59787;BME280;45672;51.612;5.536;2024-03-08T03:44:30;101386.06;;;1.47;100.00
59787;BME280;45672;51.612;5.536;2024-03-08T03:46:56;101389.69;;;1.45;100.00
59787;BME280;45672;51.612;5.536;2024-03-08T03:49:21;101380.91;;;1.46;100.00
59787;BME280;45672;51.612;5.536;2024-03-08T03:51:46;101386.41;;;1.41;100.00
59787;BME280;45672;51.612;5.536;2024-03-08T03:54:12;101393.50;;;1.39;100.00
59787;BME280;45672;51.612;5.536;2024-03-08T03:56:38;101382.91;;;1.41;100.00
59787;BME280;45672;51.612;5.536;2024-03-08T03:59:05;101390.88;;;1.39;100.00
59787;BME280;45672;51.612;5.536;2024-03-08T04:01:31;101386.66;;;1.36;100.00
59787;BME280;45672;51.612;5.536;2024-03-08T04:03:57;101385.63;;;1.39;100.00
59787;BME280;45672;51.612;5.536;2024-03-08T04:06:22;101384.72;;;1.40;100.00
59787;BME280;45672;51.612;5.536;2024-03-08T04:08:47;101379.63;;;1.37;100.00
59787;BME280;45672;51.612;5.536;2024-03-08T04:11:13;101379.53;;;1.38;100.00
59787;BME280;45672;51.612;5.536;2024-03-08T04:13:41;101373.38;;;1.40;100.00
59787;BME280;45672;51.612;5.536;2024-03-08T04:16:06;101372.69;;;1.36;100.00
59787;BME280;45672;51.612;5.536;2024-03-08T04:18:33;101359.84;;;1.31;100.00
59787;BME280;45672;51.612;5.536;2024-03-08T04:21:01;101373.94;;;1.29;100.00
59787;BME280;45672;51.612;5.536;2024-03-08T04:23:27;101360.09;;;1.27;100.00
59787;BME280;45672;51.612;5.536;2024-03-08T04:25:53;101373.34;;;1.24;100.00
59787;BME280;45672;51.612;5.536;2024-03-08T04:28:19;101357.09;;;1.17;100.00
59787;BME280;45672;51.612;5.536;2024-03-08T04:30:44;101354.31;;;1.20;100.00
59787;BME280;45672;51.612;5.536;2024-03-08T04:33:11;101349.16;;;1.18;100.00
59787;BME280;45672;51.612;5.536;2024-03-08T04:35:36;101351.88;;;1.17;100.00
59787;BME280;45672;51.612;5.536;2024-03-08T04:38:01;101359.91;;;1.14;100.00
59787;BME280;45672;51.612;5.536;2024-03-08T04:40:30;101359.81;;;1.15;100.00
59787;BME280;45672;51.612;5.536;2024-03-08T04:42:57;101345.34;;;1.08;100.00
59787;BME280;45672;51.612;5.536;2024-03-08T04:45:24;101356.56;;;1.10;100.00
59787;BME280;45672;51.612;5.536;2024-03-08T04:47:51;101346.25;;;1.07;100.00
59787;BME280;45672;51.612;5.536;2024-03-08T04:50:17;101351.59;;;1.06;100.00
59787;BME280;45672;51.612;5.536;2024-03-08T04:52:43;101353.88;;;1.12;100.00
59787;BME280;45672;51.612;5.536;2024-03-08T04:55:08;101347.09;;;1.08;100.00
59787;BME280;45672;51.612;5.536;2024-03-08T04:57:34;101337.88;;;1.00;100.00
59787;BME280;45672;51.612;5.536;2024-03-08T05:00:00;101333.50;;;1.01;100.00
59787;BME280;45672;51.612;5.536;2024-03-08T05:02:25;101333.31;;;1.04;100.00
59787;BME280;45672;51.612;5.536;2024-03-08T05:04:51;101334.50;;;0.98;100.00
59787;BME280;45672;51.612;5.536;2024-03-08T05:07:16;101332.88;;;0.96;100.00
59787;BME280;45672;51.612;5.536;2024-03-08T05:09:42;101329.47;;;0.94;100.00
59787;BME280;45672;51.612;5.536;2024-03-08T05:12:07;101327.63;;;0.96;100.00
59787;BME280;45672;51.612;5.536;2024-03-08T05:14:33;101327.63;;;0.96;100.00
59787;BME280;45672;51.612;5.536;2024-03-08T05:17:00;101322.78;;;0.88;100.00
59787;BME280;45672;51.612;5.536;2024-03-08T05:19:25;101328.81;;;0.90;100.00
59787;BME280;45672;51.612;5.536;2024-03-08T05:21:51;101328.72;;;0.92;100.00
59787;BME280;45672;51.612;5.536;2024-03-08T05:24:17;101314.78;;;0.91;100.00
59787;BME280;45672;51.612;5.536;2024-03-08T05:26:43;101329.81;;;0.88;100.00
59787;BME280;45672;51.612;5.536;2024-03-08T05:29:08;101323.81;;;0.85;100.00
59787;BME280;45672;51.612;5.536;2024-03-08T05:31:51;101321.19;;;0.85;100.00
59787;BME280;45672;51.612;5.536;2024-03-08T05:34:20;101322.03;;;0.86;100.00
59787;BME280;45672;51.612;5.536;2024-03-08T05:36:47;101322.19;;;0.83;100.00
59787;BME280;45672;51.612;5.536;2024-03-08T05:39:14;101325.06;;;0.78;100.00
59787;BME280;45672;51.612;5.536;2024-03-08T05:41:40;101318.88;;;0.79;100.00
59787;BME280;45672;51.612;5.536;2024-03-08T05:44:05;101318.22;;;0.76;100.00
59787;BME280;45672;51.612;5.536;2024-03-08T05:46:31;101320.13;;;0.72;100.00
59787;BME280;45672;51.612;5.536;2024-03-08T05:48:56;101314.97;;;0.71;100.00
59787;BME280;45672;51.612;5.536;2024-03-08T05:51:24;101310.34;;;0.76;100.00
59787;BME280;45672;51.612;5.536;2024-03-08T05:53:51;101306.94;;;0.74;100.00
59787;BME280;45672;51.612;5.536;2024-03-08T05:56:18;101298.41;;;0.70;100.00
59787;BME280;45672;51.612;5.536;2024-03-08T05:58:43;101300.16;;;0.69;100.00
59787;BME280;45672;51.612;5.536;2024-03-08T06:01:09;101303.75;;;0.68;100.00
59787;BME280;45672;51.612;5.536;2024-03-08T06:03:37;101296.72;;;0.69;100.00
59787;BME280;45672;51.612;5.536;2024-03-08T06:06:09;101296.72;;;0.69;100.00
59787;BME280;45672;51.612;5.536;2024-03-08T06:08:34;101291.41;;;0.71;100.00
59787;BME280;45672;51.612;5.536;2024-03-08T06:10:59;101303.75;;;0.68;100.00
59787;BME280;45672;51.612;5.536;2024-03-08T06:13:27;101299.25;;;0.71;100.00
59787;BME280;45672;51.612;5.536;2024-03-08T06:15:52;101294.94;;;0.69;100.00
59787;BME280;45672;51.612;5.536;2024-03-08T06:18:18;101290.72;;;0.67;100.00
59787;BME280;45672;51.612;5.536;2024-03-08T06:20:43;101285.31;;;0.70;100.00
59787;BME280;45672;51.612;5.536;2024-03-08T06:23:09;101284.47;;;0.69;100.00
59787;BME280;45672;51.612;5.536;2024-03-08T06:25:34;101279.91;;;0.73;100.00
59787;BME280;45672;51.612;5.536;2024-03-08T06:28:03;101291.75;;;0.80;100.00
59787;BME280;45672;51.612;5.536;2024-03-08T06:30:28;101285.00;;;0.76;100.00
59787;BME280;45672;51.612;5.536;2024-03-08T06:32:53;101275.13;;;0.81;100.00
59787;BME280;45672;51.612;5.536;2024-03-08T06:35:19;101278.75;;;0.79;100.00
59787;BME280;45672;51.612;5.536;2024-03-08T06:37:45;101272.34;;;0.84;100.00
59787;BME280;45672;51.612;5.536;2024-03-08T06:40:11;101276.41;;;0.90;100.00
59787;BME280;45672;51.612;5.536;2024-03-08T06:42:39;101272.69;;;0.94;100.00
59787;BME280;45672;51.612;5.536;2024-03-08T06:45:05;101268.22;;;0.96;100.00
59787;BME280;45672;51.612;5.536;2024-03-08T06:47:31;101257.66;;;0.98;100.00
59787;BME280;45672;51.612;5.536;2024-03-08T06:49:57;101263.22;;;1.08;100.00
59787;BME280;45672;51.612;5.536;2024-03-08T06:52:22;101267.31;;;1.13;100.00
59787;BME280;45672;51.612;5.536;2024-03-08T06:54:48;101276.59;;;1.19;100.00
59787;BME280;45672;51.612;5.536;2024-03-08T06:57:14;101259.34;;;1.15;100.00
59787;BME280;45672;51.612;5.536;2024-03-08T06:59:41;101267.81;;;1.20;100.00
59787;BME280;45672;51.612;5.536;2024-03-08T07:02:07;101268.34;;;1.27;100.00
59787;BME280;45672;51.612;5.536;2024-03-08T07:04:34;101268.16;;;1.30;100.00
59787;BME280;45672;51.612;5.536;2024-03-08T07:07:03;101257.16;;;1.39;100.00
59787;BME280;45672;51.612;5.536;2024-03-08T07:09:29;101261.72;;;1.51;100.00
59787;BME280;45672;51.612;5.536;2024-03-08T07:11:54;101259.84;;;1.53;100.00
59787;BME280;45672;51.612;5.536;2024-03-08T07:14:23;101263.75;;;1.62;100.00
59787;BME280;45672;51.612;5.536;2024-03-08T07:16:49;101253.59;;;1.72;100.00
59787;BME280;45672;51.612;5.536;2024-03-08T07:19:15;101262.34;;;1.87;100.00
59787;BME280;45672;51.612;5.536;2024-03-08T07:21:41;101254.00;;;1.95;100.00
59787;BME280;45672;51.612;5.536;2024-03-08T07:24:07;101253.69;;;2.15;100.00
59787;BME280;45672;51.612;5.536;2024-03-08T07:26:53;101249.44;;;2.43;100.00
59787;BME280;45672;51.612;5.536;2024-03-08T07:29:18;101251.13;;;2.58;100.00
59787;BME280;45672;51.612;5.536;2024-03-08T07:31:43;101253.38;;;2.79;100.00
59787;BME280;45672;51.612;5.536;2024-03-08T07:34:27;101248.59;;;2.86;100.00
59787;BME280;45672;51.612;5.536;2024-03-08T07:36:57;101246.72;;;2.88;100.00
59787;BME280;45672;51.612;5.536;2024-03-08T07:39:22;101251.28;;;3.13;100.00
59787;BME280;45672;51.612;5.536;2024-03-08T07:41:49;101238.91;;;3.42;100.00
59787;BME280;45672;51.612;5.536;2024-03-08T07:44:14;101229.59;;;3.91;100.00
59787;BME280;45672;51.612;5.536;2024-03-08T07:46:39;101242.06;;;4.79;100.00
59787;BME280;45672;51.612;5.536;2024-03-08T07:49:06;101237.28;;;5.59;100.00
59787;BME280;45672;51.612;5.536;2024-03-08T07:51:31;101237.97;;;6.09;98.94
59787;BME280;45672;51.612;5.536;2024-03-08T07:54:00;101225.78;;;6.53;94.68
59787;BME280;45672;51.612;5.536;2024-03-08T07:56:25;101227.31;;;7.13;93.87
59787;BME280;45672;51.612;5.536;2024-03-08T07:58:50;101232.59;;;7.68;86.79
59787;BME280;45672;51.612;5.536;2024-03-08T08:01:17;101233.72;;;8.07;83.65
59787;BME280;45672;51.612;5.536;2024-03-08T08:03:42;101221.97;;;8.31;78.13
59787;BME280;45672;51.612;5.536;2024-03-08T08:06:07;101224.91;;;8.80;74.56
59787;BME280;45672;51.612;5.536;2024-03-08T08:08:33;101237.22;;;8.91;70.87
59787;BME280;45672;51.612;5.536;2024-03-08T08:10:58;101221.06;;;9.04;73.16
59787;BME280;45672;51.612;5.536;2024-03-08T08:13:24;101223.94;;;9.41;69.18
59787;BME280;45672;51.612;5.536;2024-03-08T08:15:49;101218.34;;;9.93;65.54
59787;BME280;45672;51.612;5.536;2024-03-08T08:18:15;101209.63;;;10.21;63.88
59787;BME280;45672;51.612;5.536;2024-03-08T08:20:41;101211.75;;;10.64;62.88
59787;BME280;45672;51.612;5.536;2024-03-08T08:23:06;101199.41;;;10.73;60.77
59787;BME280;45672;51.612;5.536;2024-03-08T08:25:31;101206.19;;;11.31;57.73
59787;BME280;45672;51.612;5.536;2024-03-08T08:27:59;101205.34;;;11.85;56.83
59787;BME280;45672;51.612;5.536;2024-03-08T08:30:24;101163.00;;;12.00;55.27
59787;BME280;45672;51.612;5.536;2024-03-08T08:32:50;101201.66;;;12.91;52.66
59787;BME280;45672;51.612;5.536;2024-03-08T08:35:15;101197.44;;;12.80;51.50
59787;BME280;45672;51.612;5.536;2024-03-08T08:37:41;101199.91;;;13.33;49.90
59787;BME280;45672;51.612;5.536;2024-03-08T08:40:07;101197.66;;;13.71;48.73
59787;BME280;45672;51.612;5.536;2024-03-08T08:42:39;101198.66;;;13.70;47.60
59787;BME280;45672;51.612;5.536;2024-03-08T08:45:05;101193.28;;;13.70;47.67
59787;BME280;45672;51.612;5.536;2024-03-08T08:47:36;101184.13;;;13.89;46.18
59787;BME280;45672;51.612;5.536;2024-03-08T08:50:03;101182.44;;;13.96;45.69
59787;BME280;45672;51.612;5.536;2024-03-08T08:52:30;101184.25;;;13.95;45.94
59787;BME280;45672;51.612;5.536;2024-03-08T08:54:57;101179.06;;;13.86;45.36
59787;BME280;45672;51.612;5.536;2024-03-08T08:57:22;101181.09;;;14.00;45.13
59787;BME280;45672;51.612;5.536;2024-03-08T08:59:47;101173.44;;;14.53;43.78
59787;BME280;45672;51.612;5.536;2024-03-08T09:02:13;101161.47;;;14.72;43.40
59787;BME280;45672;51.612;5.536;2024-03-08T09:04:39;101160.63;;;15.11;42.76
59787;BME280;45672;51.612;5.536;2024-03-08T09:07:04;101170.63;;;15.17;42.73
59787;BME280;45672;51.612;5.536;2024-03-08T09:09:33;101159.13;;;15.32;41.14
59787;BME280;45672;51.612;5.536;2024-03-08T09:11:58;101161.81;;;15.93;39.89
59787;BME280;45672;51.612;5.536;2024-03-08T09:14:24;101174.44;;;16.23;39.64
59787;BME280;45672;51.612;5.536;2024-03-08T09:16:51;101155.75;;;16.44;38.58
59787;BME280;45672;51.612;5.536;2024-03-08T09:19:17;101148.53;;;16.45;38.41
59787;BME280;45672;51.612;5.536;2024-03-08T09:21:42;101156.25;;;16.99;37.57
59787;BME280;45672;51.612;5.536;2024-03-08T09:24:08;101141.22;;;17.48;36.78
59787;BME280;45672;51.612;5.536;2024-03-08T09:26:33;101132.00;;;17.36;36.29
59787;BME280;45672;51.612;5.536;2024-03-08T09:28:59;101137.25;;;16.86;36.64
59787;BME280;45672;51.612;5.536;2024-03-08T09:31:24;101147.41;;;16.54;37.36
59787;BME280;45672;51.612;5.536;2024-03-08T09:33:51;101137.50;;;16.54;37.25
59787;BME280;45672;51.612;5.536;2024-03-08T09:36:16;101125.50;;;16.20;36.92
59787;BME280;45672;51.612;5.536;2024-03-08T09:38:42;101120.09;;;16.50;36.53
59787;BME280;45672;51.612;5.536;2024-03-08T09:41:07;101128.97;;;17.02;36.09
59787;BME280;45672;51.612;5.536;2024-03-08T09:43:34;101114.28;;;17.20;35.68
59787;BME280;45672;51.612;5.536;2024-03-08T09:46:00;101118.44;;;17.44;35.61
59787;BME280;45672;51.612;5.536;2024-03-08T09:48:26;101095.66;;;17.18;34.82
59787;BME280;45672;51.612;5.536;2024-03-08T09:50:51;101091.44;;;16.94;35.43
59787;BME280;45672;51.612;5.536;2024-03-08T09:53:17;101088.97;;;17.64;35.12
59787;BME280;45672;51.612;5.536;2024-03-08T09:55:43;101083.16;;;18.24;33.84
59787;BME280;45672;51.612;5.536;2024-03-08T09:58:11;101083.25;;;17.74;34.13
59787;BME280;45672;51.612;5.536;2024-03-08T10:00:52;101077.88;;;17.74;35.60
59787;BME280;45672;51.612;5.536;2024-03-08T10:03:19;101069.03;;;18.22;34.49
59787;BME280;45672;51.612;5.536;2024-03-08T10:05:45;101071.38;;;19.00;32.94
59787;BME280;45672;51.612;5.536;2024-03-08T10:08:10;101062.50;;;18.38;33.21
59787;BME280;45672;51.612;5.536;2024-03-08T10:10:36;101065.47;;;17.23;34.57
59787;BME280;45672;51.612;5.536;2024-03-08T10:13:06;101048.16;;;14.95;38.09
59787;BME280;45672;51.612;5.536;2024-03-08T10:15:31;101046.09;;;13.55;40.34
59787;BME280;45672;51.612;5.536;2024-03-08T10:18:00;101033.06;;;12.18;43.09
59787;BME280;45672;51.612;5.536;2024-03-08T10:20:27;101033.78;;;11.42;45.64
59787;BME280;45672;51.612;5.536;2024-03-08T10:22:59;101034.06;;;10.94;46.67
59787;BME280;45672;51.612;5.536;2024-03-08T10:25:24;101024.94;;;10.33;48.38
59787;BME280;45672;51.612;5.536;2024-03-08T10:27:49;101030.28;;;10.05;48.72
59787;BME280;45672;51.612;5.536;2024-03-08T10:30:16;101014.88;;;9.71;50.27
59787;BME280;45672;51.612;5.536;2024-03-08T10:32:47;101014.59;;;9.74;50.15
59787;BME280;45672;51.612;5.536;2024-03-08T10:35:12;100996.91;;;9.55;50.77
59787;BME280;45672;51.612;5.536;2024-03-08T10:37:48;101001.66;;;9.52;51.00
59787;BME280;45672;51.612;5.536;2024-03-08T10:40:19;101007.16;;;9.30;53.54
59787;BME280;45672;51.612;5.536;2024-03-08T10:42:56;101005.44;;;9.49;52.06
59787;BME280;45672;51.612;5.536;2024-03-08T10:45:38;100997.78;;;9.36;51.58
59787;BME280;45672;51.612;5.536;2024-03-08T10:48:28;100968.19;;;9.21;52.65
59787;BME280;45672;51.612;5.536;2024-03-08T10:50:57;100977.66;;;9.34;53.88
59787;BME280;45672;51.612;5.536;2024-03-08T10:53:22;100970.94;;;9.39;54.09
59787;BME280;45672;51.612;5.536;2024-03-08T10:55:49;100976.47;;;9.56;52.95
59787;BME280;45672;51.612;5.536;2024-03-08T10:58:19;100965.59;;;9.49;52.12
59787;BME280;45672;51.612;5.536;2024-03-08T11:00:45;100962.63;;;9.52;52.52
59787;BME280;45672;51.612;5.536;2024-03-08T11:06:18;100952.47;;;9.47;52.87
59787;BME280;45672;51.612;5.536;2024-03-08T11:08:48;100951.38;;;9.40;52.31
59787;BME280;45672;51.612;5.536;2024-03-08T11:11:32;100948.56;;;9.42;53.24
59787;BME280;45672;51.612;5.536;2024-03-08T11:14:00;100937.13;;;9.41;52.98
59787;BME280;45672;51.612;5.536;2024-03-08T11:18:58;100943.81;;;9.45;52.51
59787;BME280;45672;51.612;5.536;2024-03-08T11:21:32;100941.03;;;9.37;52.57
59787;BME280;45672;51.612;5.536;2024-03-08T11:24:12;100928.44;;;9.39;53.88
59787;BME280;45672;51.612;5.536;2024-03-08T11:26:41;100913.19;;;9.51;53.05
59787;BME280;45672;51.612;5.536;2024-03-08T11:29:32;100907.94;;;9.59;53.85
59787;BME280;45672;51.612;5.536;2024-03-08T11:34:31;100917.75;;;9.59;52.92
59787;BME280;45672;51.612;5.536;2024-03-08T11:36:58;100893.56;;;9.52;53.08
59787;BME280;45672;51.612;5.536;2024-03-08T11:39:24;100894.59;;;9.51;53.59
59787;BME280;45672;51.612;5.536;2024-03-08T11:41:49;100875.50;;;9.65;53.38
59787;BME280;45672;51.612;5.536;2024-03-08T11:44:14;100886.94;;;9.66;53.13
59787;BME280;45672;51.612;5.536;2024-03-08T11:46:42;100888.00;;;9.55;54.75
59787;BME280;45672;51.612;5.536;2024-03-08T11:49:12;100899.78;;;9.71;54.36
59787;BME280;45672;51.612;5.536;2024-03-08T11:51:38;100876.00;;;9.69;53.44
59787;BME280;45672;51.612;5.536;2024-03-08T11:54:03;100887.19;;;9.73;53.99
59787;BME280;45672;51.612;5.536;2024-03-08T11:56:28;100876.63;;;9.63;54.03
59787;BME280;45672;51.612;5.536;2024-03-08T11:58:55;100873.50;;;9.68;55.85
59787;BME280;45672;51.612;5.536;2024-03-08T12:01:22;100868.59;;;9.73;55.12
59787;BME280;45672;51.612;5.536;2024-03-08T12:03:59;100873.16;;;9.80;54.89
59787;BME280;45672;51.612;5.536;2024-03-08T12:06:36;100865.03;;;9.82;54.41
59787;BME280;45672;51.612;5.536;2024-03-08T12:09:09;100861.69;;;9.80;54.14
59787;BME280;45672;51.612;5.536;2024-03-08T12:11:35;100863.59;;;9.88;54.46
59787;BME280;45672;51.612;5.536;2024-03-08T12:14:02;100844.31;;;9.86;54.17
59787;BME280;45672;51.612;5.536;2024-03-08T12:16:27;100855.34;;;9.91;54.89
59787;BME280;45672;51.612;5.536;2024-03-08T12:18:53;100835.06;;;9.90;53.96
59787;BME280;45672;51.612;5.536;2024-03-08T12:21:21;100846.75;;;9.97;54.12
59787;BME280;45672;51.612;5.536;2024-03-08T12:24:10;100849.19;;;10.08;53.32
59787;BME280;45672;51.612;5.536;2024-03-08T12:26:38;100840.25;;;10.09;51.99
59787;BME280;45672;51.612;5.536;2024-03-08T12:29:24;100832.63;;;10.14;53.01
59787;BME280;45672;51.612;5.536;2024-03-08T12:31:55;100828.59;;;10.10;53.31
59787;BME280;45672;51.612;5.536;2024-03-08T12:34:21;100827.63;;;10.11;53.06
59787;BME280;45672;51.612;5.536;2024-03-08T12:36:48;100822.84;;;10.15;52.49
59787;BME280;45672;51.612;5.536;2024-03-08T12:39:17;100818.13;;;10.09;51.76
59787;BME280;45672;51.612;5.536;2024-03-08T12:41:47;100827.00;;;10.17;52.19
59787;BME280;45672;51.612;5.536;2024-03-08T12:44:13;100809.97;;;10.28;52.10
59787;BME280;45672;51.612;5.536;2024-03-08T12:46:38;100807.78;;;10.42;53.13
59787;BME280;45672;51.612;5.536;2024-03-08T12:49:10;100797.22;;;10.32;52.38
59787;BME280;45672;51.612;5.536;2024-03-08T12:51:38;100805.34;;;10.30;52.42
59787;BME280;45672;51.612;5.536;2024-03-08T12:54:07;100781.19;;;10.24;52.44
59787;BME280;45672;51.612;5.536;2024-03-08T12:56:33;100796.69;;;10.28;53.66
59787;BME280;45672;51.612;5.536;2024-03-08T12:59:01;100801.13;;;10.38;52.94